Airport Name : Cape May Co

Other Name : Cape May Co

ICAO : KWWD

IATA : WWD

FAA : WWD

Latitude : 39.008507

Longitude : -74.908275

Country : United States

Local Date and Time : 25 Jun 2024 01:32

 

TAF (Terminal Aerodrome Forecast)

 

METAR (METeorological Aerodrome Report)

KWWD 250456Z AUTO 30005KT 10SM CLR 24/16 A2989 RMK AO2 SLP124 T02440156 402940228

KWWD 250356Z AUTO 28005KT 10SM CLR 24/16 A2988 RMK AO2 SLP120 T02390161

KWWD 250256Z AUTO 26003KT 10SM CLR 23/12 A2987 RMK AO2 SLP115 T02330117 51017

KWWD 250156Z AUTO 00000KT 10SM CLR 24/10 A2986 RMK AO2 SLP112 T02440100